Terminal Aerodrome Forecast
Issued by NWS Sterling, VA

Current Version | Previous Version | Text Only | Print | Product List | Glossary Off
Versions: 1 2 3 4 5 6 7 8 9 10 11 12 13 14 15 16 17 18 19 20 21

000
FTUS41 KLWX 191500 AAA
TAFIAD
TAF AMD
KIAD 191504Z 1915/2018 31010G18KT P6SM BKN040
     FM192200 32005KT P6SM FEW040 SCT250
     FM201700 VRB03KT P6SM BKN110=

USA.gov is the U.S. government's official web portal to all federal, state and local government web resources and services.